Time;durP1;ratioP1;P1;durP2;ratioP2;P2;SDS_P1;SDS_P2;PMS_P1;PMS_P2;Temp;Humidity;BMP_temperature;BMP_pressure;BME280_temperature;BME280_humidity;BME280_pressure;Samples;Min_cycle;Max_cycle;Signal;HPM_P1;HPM_P2
2023/07/06 04:15:00;;;;;;;11.80;9.27;;;;;;;22.33;100.00;94741.72;5090981;27;20605;-79
2023/07/06 04:17:29;;;;;;;9.10;8.17;;;;;;;22.41;100.00;94752.22;5090864;28;20444;-78
2023/07/06 04:19:56;;;;;;;10.80;9.70;;;;;;;22.38;100.00;94757.97;5090767;28;20435;-78
2023/07/06 04:22:23;;;;;;;9.90;8.90;;;;;;;22.37;100.00;94750.97;5090811;28;20433;-78
2023/07/06 04:24:51;;;;;;;9.90;8.10;;;;;;;22.39;100.00;94763.13;5091026;28;20441;-78
2023/07/06 04:27:17;;;;;;;12.43;8.37;;;;;;;22.36;100.00;94754.69;5056446;28;20451;-77
2023/07/06 04:29:44;;;;;;;10.90;9.23;;;;;;;22.38;100.00;94757.97;5090704;28;20484;-77
2023/07/06 04:32:14;;;;;;;9.57;7.57;;;;;;;22.27;98.87;94763.94;5090578;28;20453;-77
2023/07/06 04:34:41;;;;;;;16.93;9.70;;;;;;;22.30;100.00;94759.00;5056008;28;20997;-78
2023/07/06 04:37:09;;;;;;;14.80;10.03;;;;;;;22.24;100.00;94757.97;5091298;28;20434;-77
2023/07/06 04:39:37;;;;;;;27.47;11.93;;;;;;;22.24;100.00;94749.13;5090647;28;20940;-78
2023/07/06 04:42:05;;;;;;;15.10;12.10;;;;;;;22.31;100.00;94746.47;5090440;28;20546;-78
2023/07/06 04:44:32;;;;;;;19.00;13.40;;;;;;;21.98;100.00;94752.59;5090521;28;20532;-78
2023/07/06 04:46:59;;;;;;;17.23;14.20;;;;;;;21.84;100.00;94756.25;5090902;28;20984;-78
2023/07/06 04:49:28;;;;;;;18.33;13.10;;;;;;;21.90;100.00;94760.75;5090915;28;20449;-78
2023/07/06 04:51:55;;;;;;;15.43;11.70;;;;;;;22.02;100.00;94759.16;5089501;28;20511;-77
2023/07/06 04:54:22;;;;;;;22.73;13.77;;;;;;;22.10;100.00;94750.16;5071628;28;20480;-78
2023/07/06 04:56:49;;;;;;;20.83;13.83;;;;;;;22.25;100.00;94754.25;5089264;28;20842;-78
2023/07/06 04:59:16;;;;;;;20.60;11.93;;;;;;;22.41;100.00;94750.34;5090489;28;20437;-78
2023/07/06 05:01:43;;;;;;;17.30;12.33;;;;;;;22.43;100.00;94752.81;5082427;28;20452;-76
2023/07/06 05:10:56;;;;;;;22.70;12.40;;;;;;;23.51;100.00;94754.06;5075098;28;20826;-78
2023/07/06 05:13:23;;;;;;;15.00;10.57;;;;;;;24.04;100.00;94743.91;5074124;28;20488;-78
2023/07/06 05:15:51;;;;;;;12.03;10.60;;;;;;;24.67;100.00;94749.19;5073866;28;20452;-78
2023/07/06 05:18:19;;;;;;;15.10;10.57;;;;;;;25.33;93.48;94759.28;5089708;28;20452;-78
2023/07/06 05:20:48;;;;;;;15.10;10.10;;;;;;;25.98;88.37;94765.94;5089670;28;20446;-78
2023/07/06 05:23:15;;;;;;;11.30;9.87;;;;;;;26.59;81.69;94778.28;5070776;28;20859;-78
2023/07/06 05:25:42;;;;;;;14.60;9.53;;;;;;;27.09;79.99;94770.63;5060077;28;20544;-78
2023/07/06 05:28:12;;;;;;;10.80;9.77;;;;;;;27.42;77.37;94772.69;5055486;28;20865;-79
2023/07/06 05:30:39;;;;;;;11.20;10.00;;;;;;;27.78;74.80;94787.78;5054381;28;20931;-79
2023/07/06 05:33:06;;;;;;;11.40;10.20;;;;;;;28.08;74.71;94787.56;5019063;28;20525;-79
2023/07/06 05:35:33;;;;;;;15.37;10.03;;;;;;;28.38;72.98;94787.31;5054779;28;20811;-79
2023/07/06 05:38:00;;;;;;;12.37;11.00;;;;;;;28.63;70.91;94787.75;5054774;28;20527;-79
2023/07/06 05:40:28;;;;;;;12.33;10.70;;;;;;;28.79;70.47;94774.50;5054774;28;20871;-79
2023/07/06 05:42:55;;;;;;;12.63;11.13;;;;;;;28.75;69.37;94782.28;5054187;28;20456;-79
2023/07/06 05:45:23;;;;;;;11.27;9.83;;;;;;;28.82;71.63;94777.53;5054326;28;20456;-78
2023/07/06 05:47:50;;;;;;;11.37;10.07;;;;;;;29.10;69.45;94781.22;5054494;28;20449;-78
2023/07/06 05:50:17;;;;;;;17.37;9.40;;;;;;;29.26;68.69;94789.31;5054477;28;20454;-79
2023/07/06 05:52:45;;;;;;;17.67;12.03;;;;;;;29.41;67.13;94786.00;5068855;28;20442;-79
2023/07/06 05:55:12;;;;;;;11.13;9.53;;;;;;;29.24;67.57;94779.81;5054569;28;21013;-79
2023/07/06 05:57:39;;;;;;;11.63;8.60;;;;;;;29.09;68.59;94779.59;5054167;28;20441;-78
2023/07/06 06:00:09;;;;;;;11.80;9.37;;;;;;;29.02;68.38;94776.25;5054311;28;20434;-78
2023/07/06 06:02:38;;;;;;;10.50;9.50;;;;;;;28.98;68.10;94787.53;5056204;28;20522;-78
2023/07/06 06:05:06;;;;;;;9.70;8.77;;;;;;;29.06;68.18;94777.38;5054148;28;20456;-79
2023/07/06 06:07:34;;;;;;;11.83;9.90;;;;;;;28.92;68.29;94779.63;5054414;28;20450;-79
2023/07/06 06:10:03;;;;;;;12.47;10.63;;;;;;;28.57;68.19;94777.09;5054274;28;20450;-79
2023/07/06 06:12:31;;;;;;;9.83;8.20;;;;;;;28.42;69.86;94779.56;5054364;28;20441;-79
2023/07/06 06:14:59;;;;;;;9.67;8.77;;;;;;;28.42;69.86;94776.84;5054613;28;20485;-79
2023/07/06 06:17:29;;;;;;;18.30;9.73;;;;;;;28.17;70.33;94778.00;5054089;28;20818;-78
2023/07/06 06:19:57;;;;;;;10.30;9.17;;;;;;;28.15;70.81;94777.44;5054449;28;20468;-79
2023/07/06 06:22:24;;;;;;;10.10;9.07;;;;;;;28.34;70.69;94773.50;5054628;28;20456;-79
2023/07/06 06:24:51;;;;;;;11.43;8.97;;;;;;;28.68;69.42;94778.94;5035465;28;20452;-79
2023/07/06 06:27:19;;;;;;;9.90;8.93;;;;;;;28.78;67.55;94770.16;5054421;28;20808;-78
2023/07/06 06:29:46;;;;;;;10.10;9.10;;;;;;;28.96;67.07;94773.47;5068328;28;20470;-79
2023/07/06 06:32:15;;;;;;;12.30;9.87;;;;;;;28.66;67.21;94772.94;5054070;28;20445;-78
2023/07/06 06:34:42;;;;;;;11.57;8.47;;;;;;;28.84;68.49;94764.59;5053913;28;20846;-79
2023/07/06 06:37:10;;;;;;;12.63;9.43;;;;;;;28.79;68.18;94763.69;5052734;28;20437;-79
2023/07/06 06:39:38;;;;;;;11.10;8.83;;;;;;;29.03;66.79;94773.28;5053700;28;20449;-79
2023/07/06 06:42:05;;;;;;;10.13;9.13;;;;;;;28.94;65.60;94770.19;5054036;28;20449;-79
2023/07/06 06:44:32;;;;;;;12.40;10.23;;;;;;;29.07;66.54;94765.50;5053609;28;20454;-79
2023/07/06 06:47:01;;;;;;;19.23;10.20;;;;;;;29.23;65.79;94767.38;5053791;28;20446;-79
2023/07/06 06:49:28;;;;;;;13.57;10.53;;;;;;;29.21;65.97;94756.00;5053541;28;20522;-79
2023/07/06 06:51:55;;;;;;;12.40;9.80;;;;;;;29.05;66.33;94756.81;5053475;28;20449;-79
2023/07/06 06:54:23;;;;;;;12.20;9.80;;;;;;;29.26;66.59;94750.66;5034898;28;20508;-79
2023/07/06 06:56:51;;;;;;;13.60;10.30;;;;;;;29.45;66.34;94753.88;5034876;28;20438;-79
2023/07/06 06:59:18;;;;;;;10.40;9.30;;;;;;;29.58;65.07;94758.94;5053571;28;20955;-79
2023/07/06 07:01:46;;;;;;;12.97;10.63;;;;;;;29.57;65.85;94755.44;5053419;28;20482;-79
2023/07/06 07:04:13;;;;;;;12.63;8.93;;;;;;;29.65;66.18;94753.34;5067968;28;20449;-79
2023/07/06 07:06:40;;;;;;;11.20;9.63;;;;;;;29.73;65.92;94755.59;5053423;28;20893;-79
2023/07/06 07:09:09;;;;;;;9.50;8.50;;;;;;;29.92;64.56;94759.63;5053251;28;20452;-79
2023/07/06 07:11:38;;;;;;;11.80;9.60;;;;;;;30.14;64.36;94757.72;5053658;28;20810;-79
2023/07/06 07:14:07;;;;;;;10.23;9.13;;;;;;;30.40;63.08;94760.69;5052863;28;20500;-79
2023/07/06 07:16:35;;;;;;;10.13;8.90;;;;;;;30.47;60.55;94756.69;5052987;28;20446;-79
2023/07/06 07:19:02;;;;;;;9.87;8.87;;;;;;;30.39;61.19;94757.16;5067468;28;20538;-79
2023/07/06 07:21:28;;;;;;;10.10;9.10;;;;;;;30.33;60.38;94754.66;5053125;28;20445;-79
2023/07/06 07:23:55;;;;;;;9.67;8.80;;;;;;;30.48;61.11;94752.09;5053038;28;20448;-79
2023/07/06 07:26:24;;;;;;;11.13;8.03;;;;;;;30.64;61.56;94756.59;5053024;28;20448;-79
2023/07/06 07:28:52;;;;;;;10.33;9.43;;;;;;;30.38;59.98;94747.41;5052779;28;20446;-79
2023/07/06 07:31:21;;;;;;;10.90;9.80;;;;;;;30.08;59.93;94742.53;5052981;28;20792;-79
2023/07/06 07:33:50;;;;;;;8.90;7.80;;;;;;;30.26;60.52;94748.63;5053026;28;20457;-79
2023/07/06 07:36:19;;;;;;;8.97;8.07;;;;;;;30.33;61.48;94752.75;5052715;28;20507;-79
2023/07/06 07:38:50;;;;;;;9.83;8.47;;;;;;;30.53;61.59;94754.84;5052878;28;20452;-79
2023/07/06 07:41:19;;;;;;;9.27;8.30;;;;;;;30.40;59.90;94752.56;5052800;28;20983;-79
2023/07/06 07:43:48;;;;;;;12.93;7.40;;;;;;;30.19;60.17;94749.66;5033749;28;20442;-79
2023/07/06 07:46:19;;;;;;;8.57;7.77;;;;;;;30.21;61.14;94750.22;5053071;28;20515;-78
2023/07/06 07:48:47;;;;;;;8.63;7.83;;;;;;;30.24;60.73;94756.19;5052560;28;20445;-78
2023/07/06 07:51:16;;;;;;;8.07;7.37;;;;;;;30.28;60.24;94757.31;5052781;28;20449;-79
2023/07/06 07:53:44;;;;;;;8.27;7.33;;;;;;;30.31;61.36;94749.50;5052334;28;20446;-79
2023/07/06 07:56:12;;;;;;;15.50;8.20;;;;;;;30.52;60.24;94755.91;5052349;28;20865;-79
2023/07/06 07:58:40;;;;;;;9.90;7.90;;;;;;;30.68;59.05;94748.78;5052358;28;20445;-79
2023/07/06 08:01:09;;;;;;;11.40;7.60;;;;;;;30.91;58.39;94744.88;5052662;28;20444;-79
2023/07/06 08:03:38;;;;;;;8.60;6.60;;;;;;;31.15;59.25;94754.25;5033871;28;20792;-79
2023/07/06 08:06:08;;;;;;;8.17;7.37;;;;;;;31.26;57.63;94747.06;5052469;28;20450;-79
2023/07/06 08:08:36;;;;;;;9.20;7.43;;;;;;;31.31;57.42;94745.19;5052444;28;20453;-79
2023/07/06 08:11:06;;;;;;;7.47;6.87;;;;;;;31.40;57.08;94740.06;5052173;28;20446;-79
2023/07/06 08:13:34;;;;;;;10.20;7.20;;;;;;;31.37;55.85;94737.88;5052330;28;20547;-79
2023/07/06 08:16:01;;;;;;;8.23;6.83;;;;;;;31.45;56.31;94737.38;5052594;28;20496;-79
2023/07/06 08:18:28;;;;;;;11.13;6.83;;;;;;;31.66;55.83;94732.88;5052400;28;20457;-79
2023/07/06 08:20:57;;;;;;;7.50;6.73;;;;;;;31.88;54.08;94738.94;5052239;28;20444;-80
2023/07/06 08:23:25;;;;;;;7.90;7.10;;;;;;;32.03;54.18;94736.28;5052125;28;20453;-79
2023/07/06 08:25:57;;;;;;;8.00;7.30;;;;;;;31.84;54.17;94731.63;5052402;28;20440;-79
2023/07/06 08:28:28;;;;;;;9.07;8.07;;;;;;;31.74;54.24;94727.75;5052536;28;20515;-79
2023/07/06 08:30:56;;;;;;;11.33;7.50;;;;;;;31.73;54.76;94737.00;5052198;28;20445;-79
2023/07/06 08:33:22;;;;;;;7.80;7.07;;;;;;;31.86;55.47;94741.13;5051997;28;20444;-79
2023/07/06 08:35:52;;;;;;;7.83;6.63;;;;;;;31.96;54.59;94729.47;5051947;28;20837;-79
2023/07/06 08:38:20;;;;;;;9.03;7.70;;;;;;;31.74;53.38;94727.75;5052019;28;20438;-79
2023/07/06 08:40:52;;;;;;;8.23;7.33;;;;;;;31.79;55.43;94732.38;5066636;28;20517;-79
2023/07/06 08:43:22;;;;;;;9.87;9.00;;;;;;;31.60;55.36;94725.78;5066250;28;20446;-79
2023/07/06 08:45:53;;;;;;;14.10;8.20;;;;;;;31.33;55.07;94715.91;5051869;28;20492;-79
2023/07/06 08:48:25;;;;;;;8.57;7.77;;;;;;;31.37;55.39;94725.13;5052191;28;20477;-79
2023/07/06 08:50:56;;;;;;;8.00;7.30;;;;;;;31.31;55.04;94720.78;5052156;28;20508;-80
2023/07/06 08:53:32;;;;;;;15.73;7.37;;;;;;;31.16;54.44;94719.81;5052041;28;20473;-79
2023/07/06 08:56:03;;;;;;;7.77;7.07;;;;;;;31.13;56.84;94721.16;5052121;28;20484;-79
2023/07/06 08:58:32;;;;;;;7.57;6.97;;;;;;;31.07;54.85;94720.34;5052433;28;20532;-79
2023/07/06 09:01:04;;;;;;;8.70;7.17;;;;;;;31.03;56.99;94729.25;5054202;28;21016;-79
2023/07/06 09:03:37;;;;;;;9.30;7.27;;;;;;;31.14;53.61;94718.19;5066165;28;20446;-79
2023/07/06 09:06:04;;;;;;;10.93;8.00;;;;;;;30.97;53.16;94720.28;5055720;28;20452;-79
2023/07/06 09:08:32;;;;;;;8.40;7.30;;;;;;;30.68;52.92;94725.22;5055804;28;20441;-79
2023/07/06 09:10:59;;;;;;;8.70;7.90;;;;;;;30.33;54.90;94725.69;5055484;28;20449;-79
2023/07/06 09:13:29;;;;;;;8.13;7.37;;;;;;;30.38;56.38;94719.53;5055333;28;20869;-79
2023/07/06 09:15:57;;;;;;;8.53;7.40;;;;;;;30.40;58.99;94720.91;5055331;28;20508;-79
2023/07/06 09:18:24;;;;;;;9.00;7.60;;;;;;;30.51;59.56;94724.50;5055778;28;20441;-79
2023/07/06 09:20:51;;;;;;;10.10;8.30;;;;;;;30.58;59.07;94724.28;5055662;28;20453;-79
2023/07/06 09:23:18;;;;;;;9.23;8.20;;;;;;;30.58;57.83;94730.50;5036719;28;20932;-79
2023/07/06 09:25:48;;;;;;;11.17;8.83;;;;;;;30.61;57.28;94719.19;5055274;28;20449;-79
2023/07/06 09:28:19;;;;;;;9.03;8.13;;;;;;;30.75;56.31;94714.97;5055018;28;20481;-79
2023/07/06 09:30:49;;;;;;;8.50;7.60;;;;;;;30.74;56.82;94713.34;5055131;28;20952;-79
2023/07/06 09:33:19;;;;;;;8.37;7.67;;;;;;;30.87;57.12;94716.66;5055478;28;20457;-79
2023/07/06 09:35:46;;;;;;;8.73;7.63;;;;;;;30.91;58.26;94709.63;5054950;28;20561;-79
2023/07/06 09:38:14;;;;;;;8.30;7.50;;;;;;;31.00;56.92;94710.81;5055071;28;20450;-79
2023/07/06 09:40:43;;;;;;;9.30;8.27;;;;;;;30.76;55.17;94700.34;5054852;28;20448;-79
2023/07/06 09:43:25;;;;;;;9.60;7.60;;;;;;;30.72;57.22;94703.84;5055391;28;20532;-79
2023/07/06 09:45:53;;;;;;;15.57;8.70;;;;;;;29.68;57.52;94699.56;5054760;28;20866;-78
2023/07/06 09:48:29;;;;;;;11.40;8.70;;;;;;;29.41;61.48;94702.16;5054911;28;20807;-79
2023/07/06 09:51:00;;;;;;;14.77;9.37;;;;;;;29.71;62.61;94698.22;5055203;28;20449;-79
2023/07/06 09:53:44;;;;;;;10.37;9.20;;;;;;;29.63;59.74;94704.91;5054748;28;20446;-79
2023/07/06 09:56:13;;;;;;;10.57;9.33;;;;;;;29.47;60.70;94697.66;5054230;28;20488;-79
2023/07/06 09:58:45;;;;;;;9.03;7.40;;;;;;;29.50;60.80;94695.31;5054410;28;20936;-79
2023/07/06 10:01:16;;;;;;;8.47;7.70;;;;;;;29.47;60.22;94697.66;5054680;28;20473;-79
2023/07/06 10:03:57;;;;;;;8.60;7.80;;;;;;;29.37;60.28;94682.13;5054425;28;21154;-79
2023/07/06 10:06:36;;;;;;;9.37;8.43;;;;;;;29.34;61.81;94677.22;5054296;28;20806;-79
2023/07/06 10:09:10;;;;;;;9.23;8.30;;;;;;;29.32;63.56;94679.38;5054609;28;20491;-79
2023/07/06 10:11:44;;;;;;;8.10;7.30;;;;;;;29.02;60.04;94687.06;5053482;28;20867;-79
2023/07/06 10:14:23;;;;;;;8.97;7.77;;;;;;;28.86;60.89;94681.44;5053964;28;20473;-79
2023/07/06 10:17:01;;;;;;;12.47;7.30;;;;;;;28.82;60.75;94695.66;5053842;28;20445;-80
2023/07/06 10:19:33;;;;;;;9.63;7.60;;;;;;;28.68;62.35;94697.91;5053695;28;20434;-79
2023/07/06 10:22:12;;;;;;;12.60;7.53;;;;;;;28.59;61.24;94691.28;5053557;28;20503;-79
2023/07/06 10:24:48;;;;;;;9.37;8.17;;;;;;;28.59;61.14;94707.47;5067619;28;20473;-80
2023/07/06 10:27:20;;;;;;;13.47;8.80;;;;;;;28.52;61.38;94712.22;5035095;28;20441;-79
2023/07/06 10:29:52;;;;;;;10.20;9.10;;;;;;;28.47;62.11;94715.66;5053596;28;20445;-80
2023/07/06 10:32:25;;;;;;;12.33;8.00;;;;;;;28.51;63.86;94707.88;5053648;28;20446;-78
2023/07/06 10:34:58;;;;;;;9.03;8.13;;;;;;;28.51;67.78;94697.09;5052726;28;20481;-81
2023/07/06 10:37:27;;;;;;;12.73;9.60;;;;;;;28.49;68.48;94696.50;5053125;28;20960;-79
2023/07/06 10:40:12;;;;;;;11.20;10.20;;;;;;;28.45;69.42;94695.38;5053089;28;20476;-80
2023/07/06 10:42:46;;;;;;;11.07;9.90;;;;;;;28.40;70.17;94692.59;5018400;28;20434;-79
2023/07/06 10:45:38;;;;;;;13.40;9.30;;;;;;;28.36;71.59;94693.09;5053335;28;20438;-79
2023/07/06 10:48:13;;;;;;;12.43;9.60;;;;;;;28.28;70.11;94692.66;4991927;28;20456;-80
2023/07/06 10:50:46;;;;;;;11.17;9.57;;;;;;;28.23;70.30;94697.94;4991935;28;20455;-79
2023/07/06 10:53:24;;;;;;;15.67;9.13;;;;;;;28.14;70.14;94702.94;4991990;28;20452;-80
2023/07/06 10:56:08;;;;;;;9.80;8.90;;;;;;;28.12;71.12;94694.25;4991490;28;20511;-80
2023/07/06 10:58:36;;;;;;;11.00;9.97;;;;;;;28.06;71.46;94697.94;4991908;28;20436;-80
2023/07/06 11:01:10;;;;;;;10.20;9.27;;;;;;;28.08;72.06;94704.72;4991549;28;20444;-80
2023/07/06 11:03:38;;;;;;;12.77;9.33;;;;;;;28.06;71.11;94689.84;4991579;28;20480;-80
2023/07/06 11:06:07;;;;;;;10.40;9.23;;;;;;;28.08;70.33;94691.25;4974983;28;20460;-79
2023/07/06 11:09:10;;;;;;;13.30;9.90;;;;;;;28.09;70.15;94692.06;4991568;28;20441;-79
2023/07/06 11:11:41;;;;;;;12.07;9.67;;;;;;;28.10;71.26;94696.41;4991543;28;20450;-80
2023/07/06 11:14:20;;;;;;;13.10;10.07;;;;;;;28.14;71.85;94683.22;4991211;28;20487;-79
2023/07/06 11:16:55;;;;;;;16.60;10.47;;;;;;;28.10;71.66;94682.09;4991700;28;20610;-78
2023/07/06 11:19:27;;;;;;;12.37;9.03;;;;;;;28.13;71.83;94678.91;4991081;28;20444;-78
2023/07/06 11:22:00;;;;;;;13.87;10.30;;;;;;;28.12;72.11;94680.78;4991083;28;20449;-78
2023/07/06 11:24:34;;;;;;;14.33;10.97;;;;;;;28.11;74.24;94678.31;4997710;28;20492;-79
2023/07/06 11:27:09;;;;;;;11.67;10.57;;;;;;;28.10;75.34;94680.19;5052821;28;20450;-78
2023/07/06 11:29:38;;;;;;;10.87;9.63;;;;;;;28.06;75.42;94685.28;5052714;28;20935;-78
2023/07/06 11:32:16;;;;;;;14.50;10.20;;;;;;;28.04;74.96;94684.66;5052862;28;20536;-78
2023/07/06 11:34:52;;;;;;;10.90;9.83;;;;;;;27.89;75.23;94689.00;5053082;28;20450;-79
2023/07/06 11:37:38;;;;;;;12.00;9.70;;;;;;;27.73;76.00;94694.09;5052592;28;20449;-79
2023/07/06 11:40:19;;;;;;;12.07;9.47;;;;;;;27.70;76.49;94694.56;5052667;28;20511;-79
2023/07/06 11:43:02;;;;;;;11.10;9.40;;;;;;;27.61;77.91;94706.78;5052354;28;20448;-78
2023/07/06 11:45:39;;;;;;;12.00;10.17;;;;;;;27.50;76.96;94710.34;5052292;28;20453;-79
2023/07/06 11:48:23;;;;;;;10.20;9.20;;;;;;;27.42;77.83;94714.22;5052298;28;20449;-79
2023/07/06 11:50:50;;;;;;;27.70;10.70;;;;;;;27.39;77.88;94719.25;5052752;28;20488;-78
2023/07/06 11:53:42;;;;;;;10.80;9.60;;;;;;;27.34;78.29;94708.38;5052678;28;20450;-79
2023/07/06 11:56:19;;;;;;;14.37;10.00;;;;;;;27.21;79.70;94716.75;5052097;28;20488;-79
2023/07/06 11:58:56;;;;;;;11.70;10.50;;;;;;;27.17;82.80;94706.41;5017420;28;20441;-79
2023/07/06 12:01:40;;;;;;;11.83;10.63;;;;;;;27.02;86.89;94708.78;5051990;28;20486;-79
2023/07/06 12:04:14;;;;;;;12.27;11.03;;;;;;;26.81;88.99;94717.44;5052442;28;20462;-79
2023/07/06 12:06:42;;;;;;;16.77;11.83;;;;;;;26.73;90.49;94731.25;5033544;28;20474;-79
2023/07/06 12:09:08;;;;;;;12.00;10.80;;;;;;;26.04;93.69;94760.47;5052477;28;20445;-79
2023/07/06 12:11:38;;;;;;;9.63;8.73;;;;;;;25.69;87.73;94778.31;5051946;28;20538;-79
2023/07/06 12:14:12;;;;;;;8.87;6.70;;;;;;;25.00;86.35;94772.25;5052391;28;20509;-79
2023/07/06 12:16:41;;;;;;;7.17;6.30;;;;;;;24.38;88.43;94774.00;5052285;28;20847;-79
2023/07/06 12:19:12;;;;;;;8.30;6.70;;;;;;;23.80;90.73;94774.13;5052506;28;20445;-78
2023/07/06 12:21:42;;;;;;;7.13;6.40;;;;;;;23.43;92.71;94768.50;5052333;28;20450;-79
2023/07/06 12:24:14;;;;;;;9.93;6.60;;;;;;;23.43;91.84;94776.53;5052057;28;20445;-79
2023/07/06 12:26:45;;;;;;;10.10;6.07;;;;;;;23.34;90.88;94780.47;5052286;28;20965;-79
2023/07/06 12:29:15;;;;;;;7.03;6.30;;;;;;;23.13;86.94;94783.41;5051810;28;20511;-79
2023/07/06 12:31:42;;;;;;;5.23;4.73;;;;;;;23.21;86.18;94769.81;5051991;28;20466;-79
2023/07/06 12:34:16;;;;;;;5.00;4.50;;;;;;;23.29;84.03;94771.44;5052176;28;20794;-79
2023/07/06 12:36:44;;;;;;;5.83;5.30;;;;;;;23.46;83.44;94769.94;5055488;28;21009;-80
2023/07/06 12:39:15;;;;;;;5.63;4.70;;;;;;;23.64;82.27;94766.59;5055790;28;20797;-79
2023/07/06 12:41:44;;;;;;;5.70;4.80;;;;;;;23.89;79.57;94766.66;5056083;28;20452;-78
2023/07/06 12:44:17;;;;;;;4.63;4.20;;;;;;;24.21;78.74;94780.88;5055844;28;20502;-79
2023/07/06 12:46:50;;;;;;;4.33;3.93;;;;;;;24.50;78.66;94800.94;5056067;28;20449;-79
2023/07/06 12:49:22;;;;;;;7.87;6.00;;;;;;;24.74;78.66;94818.09;5055976;28;20468;-79
2023/07/06 12:51:54;;;;;;;7.30;6.60;;;;;;;24.94;82.54;94814.19;5055625;28;20449;-78
2023/07/06 12:54:24;;;;;;;7.53;6.93;;;;;;;25.12;84.38;94800.00;5055890;28;20445;-79
2023/07/06 12:56:58;;;;;;;9.70;7.07;;;;;;;25.28;85.92;94791.38;5055441;28;20492;-79
2023/07/06 12:59:26;;;;;;;9.67;7.13;;;;;;;25.39;87.00;94795.16;5055897;28;20461;-79
2023/07/06 13:01:53;;;;;;;10.67;9.53;;;;;;;25.37;83.99;94804.50;5055732;28;20441;-79
2023/07/06 13:04:21;;;;;;;9.23;7.10;;;;;;;25.33;82.68;94798.75;5055410;28;20449;-79
2023/07/06 13:06:52;;;;;;;8.30;6.80;;;;;;;25.23;82.71;94785.84;5055655;28;20452;-79
2023/07/06 13:09:21;;;;;;;8.13;7.00;;;;;;;25.12;81.55;94783.88;5055362;28;20461;-79
2023/07/06 13:11:52;;;;;;;10.93;6.60;;;;;;;25.10;81.72;94779.78;5055512;28;20441;-79
2023/07/06 13:14:21;;;;;;;7.77;6.40;;;;;;;25.01;81.23;94777.41;5055034;28;20807;-79
2023/07/06 13:16:53;;;;;;;6.97;6.27;;;;;;;24.90;82.46;94777.28;5036297;28;20485;-79
2023/07/06 13:19:23;;;;;;;9.90;6.37;;;;;;;24.89;83.56;94770.28;5055296;28;20574;-79
2023/07/06 13:21:51;;;;;;;7.70;5.80;;;;;;;24.85;84.42;94763.69;5055666;28;20434;-79
2023/07/06 13:24:21;;;;;;;7.67;6.67;;;;;;;24.92;84.10;94761.78;5055901;28;20998;-79
2023/07/06 13:26:47;;;;;;;8.43;6.50;;;;;;;24.93;85.11;94758.88;5055067;28;20999;-79
2023/07/06 13:29:16;;;;;;;8.80;6.73;;;;;;;24.98;85.91;94756.34;5055192;28;20951;-79
2023/07/06 13:31:45;;;;;;;7.13;6.40;;;;;;;24.89;84.11;94762.22;5055288;28;20468;-79
2023/07/06 13:34:14;;;;;;;8.77;5.63;;;;;;;24.72;79.39;94764.63;5054992;28;20806;-79
2023/07/06 13:36:45;;;;;;;6.83;5.40;;;;;;;24.57;81.32;94770.31;5069171;28;20504;-79
2023/07/06 13:39:12;;;;;;;11.27;5.70;;;;;;;24.32;82.53;94772.19;5055002;28;20457;-80
2023/07/06 13:41:39;;;;;;;7.53;5.77;;;;;;;24.17;82.66;94774.31;5054805;28;20488;-79
2023/07/06 13:44:07;;;;;;;9.10;5.53;;;;;;;24.19;83.21;94769.56;5055004;28;20468;-79
2023/07/06 13:46:35;;;;;;;7.63;6.53;;;;;;;23.99;83.85;94761.63;5054333;28;20841;-79
2023/07/06 13:49:02;;;;;;;6.57;5.87;;;;;;;24.03;84.28;94758.34;5055230;28;20445;-79
2023/07/06 13:51:28;;;;;;;10.70;6.87;;;;;;;23.92;84.86;94767.03;5055210;28;20444;-78
2023/07/06 13:53:57;;;;;;;9.50;5.10;;;;;;;23.92;85.29;94772.41;5035877;28;20446;-79
2023/07/06 13:56:26;;;;;;;6.20;5.30;;;;;;;23.95;84.96;94771.16;5036360;28;20489;-79
2023/07/06 13:58:53;;;;;;;5.87;5.40;;;;;;;23.88;85.87;94776.56;5054876;28;20453;-79
2023/07/06 14:01:21;;;;;;;9.57;5.63;;;;;;;23.96;86.04;94767.44;5054347;28;20452;-79
2023/07/06 14:03:48;;;;;;;6.40;5.20;;;;;;;23.97;86.03;94764.53;5054601;28;20887;-79
2023/07/06 14:06:17;;;;;;;6.10;5.50;;;;;;;24.01;88.43;94763.09;5054400;28;21046;-79
2023/07/06 14:08:44;;;;;;;7.17;5.20;;;;;;;23.56;89.77;94745.41;5054306;28;20477;-79
2023/07/06 14:11:12;;;;;;;13.60;6.47;;;;;;;23.34;92.50;94737.63;5054406;28;20952;-79
2023/07/06 14:37:00;;;;;;;6.90;6.20;;;;;;;24.78;90.00;94757.56;5119898;27;20580;-80
2023/07/06 14:39:27;;;;;;;7.17;6.43;;;;;;;24.83;89.06;94753.16;5111024;28;20454;-80
2023/07/06 14:41:54;;;;;;;11.90;8.63;;;;;;;24.79;88.30;94743.09;5110562;28;20436;-80
2023/07/06 14:44:21;;;;;;;13.27;9.00;;;;;;;24.80;88.04;94742.88;5075718;28;20454;-80
2023/07/06 14:46:48;;;;;;;10.33;9.20;;;;;;;24.82;87.71;94742.66;5110941;28;20952;-80
2023/07/06 14:49:15;;;;;;;13.87;7.73;;;;;;;24.87;88.25;94735.59;5111498;28;20971;-80
2023/07/06 14:51:42;;;;;;;9.73;6.93;;;;;;;24.93;88.25;94725.81;5110476;28;20426;-80
2023/07/06 14:54:10;;;;;;;9.10;7.00;;;;;;;25.02;86.54;94730.69;5110446;28;21010;-80
2023/07/06 14:56:37;;;;;;;7.40;6.60;;;;;;;25.04;85.76;94730.47;5110439;28;20438;-80
2023/07/06 14:59:04;;;;;;;12.80;6.90;;;;;;;25.08;85.08;94725.47;5111270;28;20916;-80
2023/07/06 15:01:31;;;;;;;10.63;6.43;;;;;;;25.10;84.40;94721.53;5110419;28;20447;-80
2023/07/06 15:03:57;;;;;;;8.17;7.27;;;;;;;25.13;85.09;94718.38;5110985;28;20443;-78
2023/07/06 15:06:24;;;;;;;9.00;6.77;;;;;;;25.11;86.37;94719.66;5111136;28;20554;-79
2023/07/06 15:08:51;;;;;;;8.63;6.90;;;;;;;25.18;86.95;94718.56;5111687;28;20569;-80
2023/07/06 15:11:19;;;;;;;7.63;6.80;;;;;;;25.12;87.10;94713.25;5110935;28;20439;-81
2023/07/06 15:13:46;;;;;;;13.10;7.80;;;;;;;25.18;87.99;94710.50;5110798;28;20435;-81
2023/07/06 15:16:13;;;;;;;14.23;8.47;;;;;;;25.24;87.95;94716.84;5075232;28;20455;-80
2023/07/06 15:18:40;;;;;;;13.23;9.13;;;;;;;25.32;88.29;94725.41;5110555;28;20439;-80
2023/07/06 15:21:08;;;;;;;19.30;8.03;;;;;;;25.40;87.61;94726.13;5111241;28;20447;-80
2023/07/06 15:23:35;;;;;;;9.80;7.47;;;;;;;25.51;87.38;94717.34;5110989;28;20447;-80
2023/07/06 15:26:02;;;;;;;14.17;7.07;;;;;;;25.63;87.30;94716.31;5110403;28;20487;-79
2023/07/06 15:28:30;;;;;;;7.20;6.33;;;;;;;25.76;86.55;94715.38;5110675;28;20447;-80
2023/07/06 15:30:57;;;;;;;11.47;8.27;;;;;;;25.90;86.16;94732.13;5111148;28;20455;-80
2023/07/06 15:33:24;;;;;;;9.43;7.23;;;;;;;25.87;85.10;94730.72;5110377;28;20490;-79
2023/07/06 15:35:51;;;;;;;7.50;6.70;;;;;;;25.71;82.72;94739.41;5120238;28;20505;-79
2023/07/06 15:38:18;;;;;;;8.50;7.00;;;;;;;25.59;81.98;94735.81;5116755;28;20447;-81
2023/07/06 15:40:47;;;;;;;8.43;7.70;;;;;;;25.71;82.07;94736.72;5117510;28;20443;-79
2023/07/06 15:43:14;;;;;;;9.10;7.20;;;;;;;25.86;83.27;94737.13;5064572;28;20454;-81
2023/07/06 15:45:44;;;;;;;10.20;7.50;;;;;;;25.90;83.21;94743.69;5116576;28;21000;-79
2023/07/06 15:48:12;;;;;;;8.00;6.57;;;;;;;25.78;81.91;94739.34;5116316;28;20450;-81
2023/07/06 15:50:39;;;;;;;7.27;6.57;;;;;;;25.60;85.11;94748.22;5116462;28;20467;-82
2023/07/06 15:53:08;;;;;;;7.23;6.60;;;;;;;25.60;87.04;94734.78;5064688;28;20451;-81
2023/07/06 15:55:35;;;;;;;7.63;6.93;;;;;;;25.51;86.36;94742.34;5117258;28;20442;-81
2023/07/06 15:58:02;;;;;;;7.17;6.30;;;;;;;25.39;86.45;94743.31;5116864;28;20439;-80
2023/07/06 16:00:30;;;;;;;12.13;6.30;;;;;;;25.12;89.52;94727.50;5116373;28;20829;-81
2023/07/06 16:02:58;;;;;;;7.30;6.43;;;;;;;25.00;91.17;94715.88;5116279;28;20451;-80
2023/07/06 16:05:25;;;;;;;8.63;7.37;;;;;;;25.07;91.63;94726.53;5115552;28;21000;-80
2023/07/06 16:07:52;;;;;;;8.10;6.60;;;;;;;25.22;91.60;94733.19;5116348;28;20450;-79
2023/07/06 16:10:19;;;;;;;8.57;7.67;;;;;;;24.86;90.12;94725.88;5116302;28;20454;-81
2023/07/06 16:12:46;;;;;;;11.10;7.80;;;;;;;24.88;91.09;94720.31;5115823;28;20817;-82
2023/07/06 16:15:13;;;;;;;8.80;7.37;;;;;;;25.01;90.86;94722.88;5115753;28;20457;-82
2023/07/06 16:17:41;;;;;;;8.10;6.63;;;;;;;25.19;90.05;94722.88;5116095;28;20504;-81
2023/07/06 16:20:11;;;;;;;11.20;8.37;;;;;;;25.14;89.41;94729.94;5116583;28;20492;-80
2023/07/06 16:22:37;;;;;;;7.93;7.07;;;;;;;24.88;90.09;94729.19;5116301;28;20462;-80